Time,TemperatureF,DewpointF,PressureIn,WindDirection,WindDirectionDegrees,WindSpeedMPH,WindSpeedGustMPH,Humidity,HourlyPrecipIn,Conditions,Clouds,dailyrainin,SolarRadiationWatts/m^2,SoftwareType,DateUTC
2013-03-15 00:00:00,7.3,3.2,29.82,West,264,3.5,0.0,83,0.00,BKN,FEW,0.02,0.0,WeatherDisplay:10.37,2013-03-15 04:00:00,
2013-03-15 00:01:00,7.3,3.2,29.82,West,264,0.0,0.0,83,0.00,RA,FEW,0.00,0.0,WeatherDisplay:10.37,2013-03-15 04:01:00,
2013-03-15 00:04:00,7.2,3.4,29.83,NNW,339,0.0,0.0,84,0.00,RA,FEW,0.00,0.0,WeatherDisplay:10.37,2013-03-15 04:04:00,
2013-03-15 00:09:00,7.0,2.9,29.83,NW,319,1.0,0.0,83,0.00,RA,FEW,0.00,0.0,WeatherDisplay:10.37,2013-03-15 04:09:00,
2013-03-15 00:14:00,6.8,3.0,29.82,NW,315,0.0,0.0,84,0.00,OVC,FEW,0.00,0.0,WeatherDisplay:10.37,2013-03-15 04:14:00,
2013-03-15 00:19:00,6.6,2.8,29.83,West,275,2.0,2.0,84,0.00,OVC,FEW,0.00,0.0,WeatherDisplay:10.37,2013-03-15 04:19:00,
2013-03-15 00:24:00,6.5,2.7,29.83,South,179,2.3,2.3,84,0.00,OVC,FEW,0.00,0.0,WeatherDisplay:10.37,2013-03-15 04:24:00,
2013-03-15 00:29:00,6.4,2.6,29.83,South,178,1.2,1.2,84,0.00,OVC,FEW,0.00,0.0,WeatherDisplay:10.37,2013-03-15 04:29:00,
2013-03-15 00:34:00,6.3,2.5,29.83,South,178,1.2,0.0,84,0.00,OVC,FEW,0.00,0.0,WeatherDisplay:10.37,2013-03-15 04:34:00,
2013-03-15 00:39:00,6.2,2.4,29.82,South,180,2.3,2.3,84,0.00,OVC,FEW,0.00,0.0,WeatherDisplay:10.37,2013-03-15 04:39:00,
2013-03-15 00:44:00,6.0,2.2,29.83,South,180,0.0,0.0,84,0.00,OVC,FEW,0.00,0.0,WeatherDisplay:10.37,2013-03-15 04:44:00,
2013-03-15 00:49:00,5.9,2.4,29.83,SE,134,2.3,2.3,85,0.00,-SN,FEW,0.00,0.0,WeatherDisplay:10.37,2013-03-15 04:49:00,
2013-03-15 00:54:00,5.9,2.4,29.82,SE,135,1.2,1.2,85,0.00,-SN,FEW,0.00,0.0,WeatherDisplay:10.37,2013-03-15 04:54:00,
2013-03-15 00:59:00,5.9,2.4,29.82,SE,135,0.0,0.0,85,0.00,-SN,FEW,0.00,0.0,WeatherDisplay:10.37,2013-03-15 04:59:00,
2013-03-15 01:04:00,5.8,2.3,29.82,SE,132,1.2,0.0,85,0.00,-SN,FEW,0.00,0.0,WeatherDisplay:10.37,2013-03-15 05:04:00,
2013-03-15 01:09:00,5.8,2.3,29.83,SE,134,1.2,1.2,85,0.00,-SN,FEW,0.00,0.0,WeatherDisplay:10.37,2013-03-15 05:09:00,
2013-03-15 01:14:00,5.6,2.1,29.83,SE,137,1.0,0.0,85,0.00,-SN,FEW,0.00,0.0,WeatherDisplay:10.37,2013-03-15 05:14:00,
2013-03-15 01:19:00,5.5,2.0,29.83,South,170,3.5,3.5,85,0.00,-SN,FEW,0.00,0.0,WeatherDisplay:10.37,2013-03-15 05:19:00,
2013-03-15 01:24:00,5.4,1.9,29.83,South,171,0.0,0.0,85,0.00,-SN,FEW,0.00,0.0,WeatherDisplay:10.37,2013-03-15 05:24:00,
2013-03-15 01:29:00,5.3,1.8,29.83,South,171,1.0,0.0,85,0.00,-SN,FEW,0.00,0.0,WeatherDisplay:10.37,2013-03-15 05:29:00,
2013-03-15 01:35:00,5.1,1.6,29.83,South,176,1.2,0.0,85,0.00,-SN,FEW,0.00,0.0,WeatherDisplay:10.37,2013-03-15 05:35:00,
2013-03-15 01:40:00,5.1,1.8,29.83,South,177,2.0,0.0,86,0.00,-SN,FEW,0.00,0.0,WeatherDisplay:10.37,2013-03-15 05:40:00,
2013-03-15 01:45:00,5.0,1.7,29.83,South,187,2.3,2.3,86,0.00,-SN,FEW,0.00,0.0,WeatherDisplay:10.37,2013-03-15 05:45:00,
2013-03-15 01:50:00,5.0,1.7,29.83,South,187,0.0,0.0,86,0.00,-SN,FEW,0.00,0.0,WeatherDisplay:10.37,2013-03-15 05:50:00,
2013-03-15 01:55:00,5.0,1.7,29.83,South,187,0.0,0.0,86,0.00,-SN,FEW,0.00,0.0,WeatherDisplay:10.37,2013-03-15 05:55:00,
2013-03-15 02:00:00,4.9,1.6,29.83,South,187,0.0,0.0,86,0.00,-SN,FEW,0.00,0.0,WeatherDisplay:10.37,2013-03-15 06:00:00,
2013-03-15 02:05:00,4.9,1.6,29.83,South,186,0.0,0.0,86,0.00,-SN,FEW,0.00,0.0,WeatherDisplay:10.37,2013-03-15 06:05:00,
2013-03-15 02:10:00,4.8,1.5,29.83,South,186,0.0,0.0,86,0.00,-SN,FEW,0.00,0.0,WeatherDisplay:10.37,2013-03-15 06:10:00,
2013-03-15 02:15:00,4.8,1.8,29.83,South,187,0.0,0.0,87,0.00,-SN,FEW,0.00,0.0,WeatherDisplay:10.37,2013-03-15 06:15:00,
2013-03-15 02:20:00,4.8,1.8,29.83,South,187,0.0,0.0,87,0.00,-SN,FEW,0.00,0.0,WeatherDisplay:10.37,2013-03-15 06:20:00,
2013-03-15 02:25:00,4.9,1.9,29.83,South,188,0.0,0.0,87,0.00,-SN,FEW,0.00,0.0,WeatherDisplay:10.37,2013-03-15 06:25:00,
2013-03-15 02:30:00,5.0,2.0,29.83,South,188,0.0,0.0,87,0.00,-SN,FEW,0.00,0.0,WeatherDisplay:10.37,2013-03-15 06:30:00,
2013-03-15 02:35:00,5.1,2.1,29.83,South,188,0.0,0.0,87,0.00,OVC,FEW,0.00,0.0,WeatherDisplay:10.37,2013-03-15 06:35:00,
2013-03-15 02:40:00,5.2,2.2,29.83,South,188,1.2,1.2,87,0.00,OVC,FEW,0.00,0.0,WeatherDisplay:10.37,2013-03-15 06:40:00,
2013-03-15 02:45:00,5.3,2.3,29.83,South,185,0.0,0.0,87,0.00,OVC,FEW,0.00,0.0,WeatherDisplay:10.37,2013-03-15 06:45:00,
2013-03-15 02:50:00,5.3,2.3,29.83,WSW,251,3.5,3.5,87,0.00,-SN,FEW,0.00,0.0,WeatherDisplay:10.37,2013-03-15 06:50:00,
2013-03-15 02:55:00,5.4,2.6,29.83,WSW,249,1.0,1.0,88,0.00,-SN,FEW,0.00,0.0,WeatherDisplay:10.37,2013-03-15 06:55:00,
2013-03-15 03:00:00,5.4,2.4,29.83,WSW,249,0.0,0.0,87,0.00,-SN,FEW,0.00,0.0,WeatherDisplay:10.37,2013-03-15 07:00:00,
2013-03-15 03:05:00,5.3,2.3,29.83,WSW,242,1.2,0.0,87,0.00,OVC,FEW,0.00,0.0,WeatherDisplay:10.37,2013-03-15 07:05:00,
2013-03-15 03:10:00,5.2,2.2,29.83,SW,229,0.0,0.0,87,0.00,OVC,FEW,0.00,0.0,WeatherDisplay:10.37,2013-03-15 07:10:00,
2013-03-15 03:15:00,5.2,2.2,29.83,SW,229,1.2,1.2,87,0.00,OVC,FEW,0.00,0.0,WeatherDisplay:10.37,2013-03-15 07:15:00,
2013-03-15 03:20:00,5.1,2.1,29.83,SW,228,0.0,0.0,87,0.00,OVC,FEW,0.00,0.0,WeatherDisplay:10.37,2013-03-15 07:20:00,
2013-03-15 03:25:00,5.0,2.0,29.83,WSW,248,0.0,0.0,87,0.00,OVC,FEW,0.00,0.0,WeatherDisplay:10.37,2013-03-15 07:25:00,
2013-03-15 03:30:00,4.9,2.1,29.82,WSW,248,0.0,0.0,88,0.00,OVC,FEW,0.00,0.0,WeatherDisplay:10.37,2013-03-15 07:30:00,
2013-03-15 03:35:00,4.8,2.0,29.82,WSW,248,1.2,0.0,88,0.00,OVC,FEW,0.00,0.0,WeatherDisplay:10.37,2013-03-15 07:35:00,
2013-03-15 03:40:00,4.7,1.7,29.82,WSW,248,0.0,0.0,87,0.00,OVC,FEW,0.00,0.0,WeatherDisplay:10.37,2013-03-15 07:40:00,
2013-03-15 03:45:00,4.6,1.8,29.83,WSW,248,3.5,3.5,88,0.00,OVC,FEW,0.00,0.0,WeatherDisplay:10.37,2013-03-15 07:45:00,
2013-03-15 03:50:00,4.4,1.6,29.82,WSW,248,0.0,0.0,88,0.00,OVC,FEW,0.00,0.0,WeatherDisplay:10.37,2013-03-15 07:50:00,
2013-03-15 03:55:00,4.4,1.6,29.82,WSW,248,0.0,0.0,88,0.00,OVC,FEW,0.00,0.0,WeatherDisplay:10.37,2013-03-15 07:55:00,
2013-03-15 04:00:00,4.4,1.6,29.82,WSW,246,2.3,2.3,88,0.00,OVC,FEW,0.00,0.0,WeatherDisplay:10.37,2013-03-15 08:00:00,
2013-03-15 04:05:00,4.4,1.6,29.82,NW,320,5.0,5.0,88,0.00,OVC,FEW,0.00,0.0,WeatherDisplay:10.37,2013-03-15 08:05:00,
2013-03-15 04:10:00,4.4,1.6,29.82,SSW,210,0.0,0.0,88,0.00,OVC,FEW,0.00,0.0,WeatherDisplay:10.37,2013-03-15 08:10:00,
2013-03-15 04:15:00,4.4,1.6,29.82,SSW,210,0.0,0.0,88,0.00,OVC,FEW,0.00,0.0,WeatherDisplay:10.37,2013-03-15 08:15:00,
2013-03-15 04:20:00,4.6,2.1,29.82,SSW,209,0.0,0.0,89,0.00,OVC,FEW,0.00,0.0,WeatherDisplay:10.37,2013-03-15 08:20:00,
2013-03-15 04:25:00,4.6,2.1,29.82,SSW,210,0.0,0.0,89,0.00,OVC,FEW,0.00,0.0,WeatherDisplay:10.37,2013-03-15 08:25:00,
2013-03-15 04:30:00,4.8,2.3,29.82,SSW,210,1.2,0.0,89,0.00,OVC,FEW,0.00,0.0,WeatherDisplay:10.37,2013-03-15 08:30:00,
2013-03-15 04:35:00,4.9,2.4,29.82,SSW,210,0.0,0.0,89,0.00,OVC,FEW,0.00,0.0,WeatherDisplay:10.37,2013-03-15 08:35:00,
2013-03-15 04:40:00,5.1,2.6,29.82,SSW,210,1.0,0.0,89,0.00,OVC,FEW,0.00,0.0,WeatherDisplay:10.37,2013-03-15 08:40:00,
2013-03-15 04:45:00,5.2,2.7,29.82,West,272,3.5,3.5,89,0.00,OVC,FEW,0.00,0.0,WeatherDisplay:10.37,2013-03-15 08:45:00,
2013-03-15 04:50:00,5.4,2.6,29.82,WSW,244,2.3,2.3,88,0.00,OVC,FEW,0.00,0.0,WeatherDisplay:10.37,2013-03-15 08:50:00,
2013-03-15 04:55:00,5.4,2.6,29.82,SSW,192,3.5,3.5,88,0.00,OVC,FEW,0.00,0.0,WeatherDisplay:10.37,2013-03-15 08:55:00,
2013-03-15 05:00:00,5.4,2.6,29.82,NE,36,1.2,1.2,88,0.00,OVC,FEW,0.00,0.0,WeatherDisplay:10.37,2013-03-15 09:00:00,
2013-03-15 05:05:00,5.4,2.6,29.82,South,184,3.5,3.5,88,0.00,OVC,FEW,0.00,0.0,WeatherDisplay:10.37,2013-03-15 09:05:00,
2013-03-15 05:10:00,5.4,2.6,29.82,WSW,244,9.2,9.2,88,0.00,OVC,FEW,0.00,0.0,WeatherDisplay:10.37,2013-03-15 09:10:00,
2013-03-15 05:15:00,5.5,2.7,29.82,North,5,3.0,3.0,88,0.00,OVC,FEW,0.00,0.0,WeatherDisplay:10.37,2013-03-15 09:15:00,
2013-03-15 05:20:00,5.5,2.7,29.83,WSW,250,1.0,1.0,88,0.00,OVC,FEW,0.00,0.0,WeatherDisplay:10.37,2013-03-15 09:20:00,
2013-03-15 05:25:00,5.5,2.7,29.83,West,270,2.0,2.0,88,0.00,OVC,FEW,0.00,0.0,WeatherDisplay:10.37,2013-03-15 09:25:00,
2013-03-15 05:30:00,5.5,2.7,29.83,NW,313,4.6,4.6,88,0.00,OVC,FEW,0.00,0.0,WeatherDisplay:10.37,2013-03-15 09:30:00,
2013-03-15 05:35:00,5.5,2.7,29.83,SW,234,2.3,2.3,88,0.00,OVC,FEW,0.00,0.0,WeatherDisplay:10.37,2013-03-15 09:35:00,
2013-03-15 05:40:00,5.5,2.7,29.83,SW,227,0.0,0.0,88,0.00,OVC,FEW,0.00,0.0,WeatherDisplay:10.37,2013-03-15 09:40:00,
2013-03-15 05:46:00,5.4,2.4,29.83,SW,227,0.0,0.0,87,0.00,OVC,FEW,0.00,0.0,WeatherDisplay:10.37,2013-03-15 09:46:00,
2013-03-15 05:51:00,5.4,2.6,29.83,SW,228,1.2,1.2,88,0.00,OVC,FEW,0.00,0.0,WeatherDisplay:10.37,2013-03-15 09:51:00,
2013-03-15 05:56:00,5.4,2.6,29.83,NNE,33,1.0,1.0,88,0.00,OVC,FEW,0.00,0.0,WeatherDisplay:10.37,2013-03-15 09:56:00,
2013-03-15 06:01:00,5.4,2.6,29.83,SSW,204,1.0,1.0,88,0.00,OVC,FEW,0.00,0.0,WeatherDisplay:10.37,2013-03-15 10:01:00,
2013-03-15 06:06:00,5.4,2.6,29.83,SSW,205,1.0,1.0,88,0.00,OVC,FEW,0.00,0.0,WeatherDisplay:10.37,2013-03-15 10:06:00,
2013-03-15 06:11:00,5.5,2.7,29.83,SSW,205,0.0,0.0,88,0.00,OVC,FEW,0.00,0.0,WeatherDisplay:10.37,2013-03-15 10:11:00,
2013-03-15 06:16:00,5.5,2.7,29.83,SSW,205,0.0,0.0,88,0.00,OVC,FEW,0.00,0.0,WeatherDisplay:10.37,2013-03-15 10:16:00,
2013-03-15 06:21:00,5.5,2.7,29.83,SSW,213,3.0,3.0,88,0.00,OVC,FEW,0.00,0.0,WeatherDisplay:10.37,2013-03-15 10:21:00,
2013-03-15 06:26:00,5.4,2.6,29.83,SSW,212,0.0,0.0,88,0.00,OVC,FEW,0.00,0.0,WeatherDisplay:10.37,2013-03-15 10:26:00,
2013-03-15 06:31:00,5.4,2.4,29.83,NNW,342,3.5,3.5,87,0.00,OVC,FEW,0.00,0.0,WeatherDisplay:10.37,2013-03-15 10:31:00,
2013-03-15 06:36:00,5.3,2.3,29.83,NNW,344,0.0,0.0,87,0.00,OVC,FEW,0.00,0.0,WeatherDisplay:10.37,2013-03-15 10:36:00,
2013-03-15 06:41:00,5.1,2.1,29.83,WSW,256,2.3,2.3,87,0.00,OVC,FEW,0.00,0.0,WeatherDisplay:10.37,2013-03-15 10:41:00,
2013-03-15 06:46:00,5.0,2.0,29.83,WSW,256,0.0,0.0,87,0.00,OVC,FEW,0.00,0.0,WeatherDisplay:10.37,2013-03-15 10:46:00,
2013-03-15 06:51:00,4.8,1.8,29.83,WSW,256,0.0,0.0,87,0.00,OVC,FEW,0.00,0.0,WeatherDisplay:10.37,2013-03-15 10:51:00,
2013-03-15 06:56:00,4.6,1.3,29.83,WSW,256,0.0,0.0,86,0.00,OVC,FEW,0.00,0.0,WeatherDisplay:10.37,2013-03-15 10:56:00,
2013-03-15 07:01:00,4.4,1.4,29.83,WSW,256,1.0,0.0,87,0.00,OVC,FEW,0.00,5.0,WeatherDisplay:10.37,2013-03-15 11:01:00,
2013-03-15 07:06:00,4.3,1.3,29.83,WSW,238,0.0,0.0,87,0.00,OVC,FEW,0.00,7.0,WeatherDisplay:10.37,2013-03-15 11:06:00,
2013-03-15 07:11:00,4.1,1.1,29.83,WSW,238,0.0,0.0,87,0.00,OVC,FEW,0.00,9.0,WeatherDisplay:10.37,2013-03-15 11:11:00,
2013-03-15 07:16:00,4.0,1.0,29.83,WSW,238,0.0,0.0,87,0.00,OVC,FEW,0.00,18.0,WeatherDisplay:10.37,2013-03-15 11:16:00,
2013-03-15 07:21:00,4.0,1.0,29.83,WSW,237,0.0,0.0,87,0.00,OVC,FEW,0.00,21.0,WeatherDisplay:10.37,2013-03-15 11:21:00,
2013-03-15 07:26:00,4.1,1.1,29.83,SW,236,1.2,0.0,87,0.00,OVC,FEW,0.00,25.0,WeatherDisplay:10.37,2013-03-15 11:26:00,
2013-03-15 07:31:00,4.2,1.2,29.83,SW,236,1.2,0.0,87,0.00,OVC,FEW,0.00,19.0,WeatherDisplay:10.37,2013-03-15 11:31:00,
2013-03-15 07:36:00,4.3,1.3,29.83,SW,236,1.2,0.0,87,0.00,OVC,FEW,0.00,28.0,WeatherDisplay:10.37,2013-03-15 11:36:00,
2013-03-15 07:41:00,4.4,1.4,29.83,SW,236,0.0,0.0,87,0.00,OVC,FEW,0.00,32.0,WeatherDisplay:10.37,2013-03-15 11:41:00,
2013-03-15 07:46:00,4.6,1.6,29.83,SW,236,0.0,0.0,87,0.00,OVC,FEW,0.00,70.0,WeatherDisplay:10.37,2013-03-15 11:46:00,
2013-03-15 07:51:00,4.9,1.9,29.83,SW,228,0.0,0.0,87,0.00,OVC,FEW,0.00,95.0,WeatherDisplay:10.37,2013-03-15 11:51:00,
2013-03-15 07:56:00,5.6,2.8,29.83,WSW,242,1.2,0.0,88,0.00,OVC,FEW,0.00,144.0,WeatherDisplay:10.37,2013-03-15 11:56:00,
2013-03-15 08:06:00,7.5,4.2,29.82,WSW,250,0.0,4.0,86,0.00,OVC,FEW,0.00,176.0,WeatherDisplay:10.37,2013-03-15 12:06:00,
2013-03-15 08:36:00,7.7,3.6,29.82,West,266,0.0,3.0,83,0.00,OVC,FEW,0.00,225.0,WeatherDisplay:10.37,2013-03-15 12:36:00,
2013-03-15 08:51:00,10.1,4.8,29.82,West,266,0.0,4.0,79,0.00,BKN,FEW,0.00,306.0,WeatherDisplay:10.37,2013-03-15 12:51:00,
2013-03-15 09:06:00,11.7,5.9,29.81,WSW,242,1.0,6.0,77,0.00,FEW,FEW,0.00,292.0,WeatherDisplay:10.37,2013-03-15 13:06:00,
2013-03-15 09:36:00,13.8,7.1,29.81,SSW,213,1.0,4.0,74,0.00,FEW,FEW,0.00,392.0,WeatherDisplay:10.37,2013-03-15 13:36:00,
2013-03-15 09:51:00,14.4,6.7,29.80,South,185,1.0,7.0,71,0.00,FEW,FEW,0.00,476.0,WeatherDisplay:10.37,2013-03-15 13:51:00,
2013-03-15 10:06:00,16.0,8.0,29.78,East,79,0.0,3.0,70,0.00,SCT,FEW,0.00,533.0,WeatherDisplay:10.37,2013-03-15 14:06:00,
2013-03-15 10:21:00,16.6,7.8,29.79,WNW,293,0.0,12.0,68,0.00,SCT,FEW,0.00,543.0,WeatherDisplay:10.37,2013-03-15 14:21:00,
2013-03-15 10:36:00,18.2,8.4,29.78,WNW,299,1.0,4.0,65,0.00,SCT,FEW,0.00,621.0,WeatherDisplay:10.37,2013-03-15 14:36:00,
2013-03-15 10:51:00,18.5,7.0,29.77,South,183,2.0,6.0,60,0.00,SCT,FEW,0.00,657.0,WeatherDisplay:10.37,2013-03-15 14:51:00,
2013-03-15 11:06:00,18.5,7.6,29.77,SSW,205,3.0,7.0,62,0.00,CLR,FEW,0.00,694.0,WeatherDisplay:10.37,2013-03-15 15:06:00,
2013-03-15 11:21:00,19.3,7.7,29.76,South,190,1.0,5.0,60,0.00,CLR,FEW,0.00,719.0,WeatherDisplay:10.37,2013-03-15 15:21:00,
2013-03-15 11:36:00,18.9,6.9,29.75,SSW,204,3.0,8.0,59,0.00,CLR,FEW,0.00,756.0,WeatherDisplay:10.37,2013-03-15 15:36:00,
2013-03-15 12:21:00,22.7,8.5,29.72,SW,234,1.0,5.0,54,0.00,BKN,FEW,0.00,803.0,WeatherDisplay:10.37,2013-03-15 16:21:00,
2013-03-15 12:36:00,23.3,8.6,29.71,SSE,159,0.0,3.0,53,0.00,BKN,FEW,0.00,777.0,WeatherDisplay:10.37,2013-03-15 16:36:00,
2013-03-15 12:51:00,23.5,6.7,29.71,SW,214,1.0,6.0,48,0.00,RA,FEW,0.01,817.0,WeatherDisplay:10.37,2013-03-15 16:51:00,
2013-03-15 13:06:00,24.2,6.8,29.69,SW,217,3.0,7.0,47,0.00,BKN,FEW,0.01,603.0,WeatherDisplay:10.37,2013-03-15 17:06:00,
2013-03-15 13:21:00,22.2,5.0,29.69,South,188,3.0,12.0,47,0.00,BKN,FEW,0.01,661.0,WeatherDisplay:10.37,2013-03-15 17:21:00,
2013-03-15 13:51:00,24.5,7.1,29.67,WSW,240,1.0,6.0,47,0.00,BKN,FEW,0.01,529.0,WeatherDisplay:10.37,2013-03-15 17:51:00,
2013-03-15 14:06:00,24.3,5.9,29.66,SSW,208,2.0,9.0,45,0.00,BKN,FEW,0.02,480.0,WeatherDisplay:10.37,2013-03-15 18:06:00,
2013-03-15 14:21:00,24.6,6.7,29.66,WSW,256,0.0,4.0,46,0.00,BKN,FEW,0.02,466.0,WeatherDisplay:10.37,2013-03-15 18:21:00,
2013-03-15 14:36:00,24.2,6.4,29.65,SSW,198,1.0,8.0,46,0.00,BKN,FEW,0.02,536.0,WeatherDisplay:10.37,2013-03-15 18:36:00,
2013-03-15 14:51:00,24.3,6.0,29.65,SSW,206,2.0,9.0,45,0.00,BKN,FEW,0.02,563.0,WeatherDisplay:10.37,2013-03-15 18:51:00,
2013-03-15 15:06:00,24.9,7.5,29.64,SSW,199,1.0,6.0,47,0.00,BKN,FEW,0.02,687.0,WeatherDisplay:10.37,2013-03-15 19:06:00,
2013-03-15 15:21:00,24.9,7.5,29.64,SSW,207,1.0,9.0,47,0.00,OVC,FEW,0.02,369.0,WeatherDisplay:10.37,2013-03-15 19:21:00,
2013-03-15 15:36:00,25.8,9.7,29.63,NNW,335,0.0,4.0,50,0.00,OVC,FEW,0.02,408.0,WeatherDisplay:10.37,2013-03-15 19:36:00,
2013-03-15 15:51:00,24.4,8.9,29.63,South,191,1.0,9.0,51,0.00,OVC,FEW,0.02,207.0,WeatherDisplay:10.37,2013-03-15 19:51:00,
2013-03-15 16:21:00,23.2,12.1,29.63,SSW,202,0.0,5.0,62,0.00,OVC,FEW,0.02,109.0,WeatherDisplay:10.37,2013-03-15 20:21:00,
2013-03-15 16:36:00,23.1,13.1,29.63,WNW,287,1.0,4.0,65,0.00,OVC,FEW,0.02,105.0,WeatherDisplay:10.37,2013-03-15 20:36:00,
2013-03-15 16:51:00,22.6,14.0,29.63,SSW,207,0.0,3.0,69,0.00,OVC,FEW,0.02,104.0,WeatherDisplay:10.37,2013-03-15 20:51:00,
2013-03-15 17:06:00,21.9,14.6,29.62,SSW,203,0.0,2.0,73,0.00,OVC,FEW,0.02,67.0,WeatherDisplay:10.37,2013-03-15 21:06:00,
2013-03-15 17:21:00,21.6,14.9,29.62,SSW,203,0.0,2.0,75,0.00,OVC,FEW,0.02,118.0,WeatherDisplay:10.37,2013-03-15 21:21:00,
2013-03-15 17:36:00,21.4,15.9,29.63,South,176,1.0,4.0,79,0.00,OVC,FEW,0.02,91.0,WeatherDisplay:10.37,2013-03-15 21:36:00,
2013-03-15 17:51:00,21.2,16.8,29.62,SSE,154,0.0,1.0,83,0.00,OVC,FEW,0.02,47.0,WeatherDisplay:10.37,2013-03-15 21:51:00,
2013-03-15 18:06:00,20.8,17.0,29.62,SSE,155,0.0,1.0,85,0.00,-SN,FEW,0.02,19.0,WeatherDisplay:10.37,2013-03-15 22:06:00,
2013-03-15 18:21:00,20.5,17.5,29.62,SSE,155,0.0,1.0,88,0.00,-SN,FEW,0.02,26.0,WeatherDisplay:10.37,2013-03-15 22:21:00,
2013-03-15 18:36:00,20.1,17.4,29.62,SSE,155,0.0,1.0,89,0.00,-SN,FEW,0.02,7.0,WeatherDisplay:10.37,2013-03-15 22:36:00,
2013-03-15 18:51:00,19.9,17.7,29.62,SSE,155,0.0,1.0,91,0.00,-SN,FEW,0.02,0.0,WeatherDisplay:10.37,2013-03-15 22:51:00,
2013-03-15 19:06:00,19.8,17.9,29.63,SSE,155,0.0,1.0,92,0.00,-SN,FEW,0.02,0.0,WeatherDisplay:10.37,2013-03-15 23:06:00,
2013-03-15 19:21:00,19.6,17.4,29.62,SSE,155,0.0,2.0,91,0.00,-SN,FEW,0.02,0.0,WeatherDisplay:10.37,2013-03-15 23:21:00,
2013-03-15 19:36:00,19.5,17.6,29.62,SSE,155,0.0,1.0,92,0.00,-SN,FEW,0.02,0.0,WeatherDisplay:10.37,2013-03-15 23:36:00,
2013-03-15 20:06:00,19.5,17.5,29.62,SSE,155,0.0,1.0,92,0.00,OVC,FEW,0.02,0.0,WeatherDisplay:10.37,2013-03-16 00:06:00,
2013-03-15 20:36:00,19.6,17.9,29.62,SSE,155,0.0,0.0,93,0.00,OVC,FEW,0.02,0.0,WeatherDisplay:10.37,2013-03-16 00:36:00,
2013-03-15 20:51:00,19.7,17.7,29.62,SSE,155,0.0,0.0,92,0.00,OVC,FEW,0.02,0.0,WeatherDisplay:10.37,2013-03-16 00:51:00,
2013-03-15 21:06:00,19.8,18.1,29.63,SSE,155,0.0,1.0,93,0.00,OVC,FEW,0.02,0.0,WeatherDisplay:10.37,2013-03-16 01:06:00,
2013-03-15 21:36:00,20.1,18.1,29.63,SSE,155,0.0,0.0,92,0.00,OVC,FEW,0.02,0.0,WeatherDisplay:10.37,2013-03-16 01:36:00,
2013-03-15 21:51:00,19.9,18.0,29.63,SSE,155,0.0,1.0,92,0.00,OVC,FEW,0.02,0.0,WeatherDisplay:10.37,2013-03-16 01:51:00,
2013-03-15 22:21:00,19.7,17.8,29.64,SSW,203,0.0,1.0,92,0.00,-SN,FEW,0.02,0.0,WeatherDisplay:10.37,2013-03-16 02:21:00,
2013-03-15 22:36:00,19.5,17.3,29.64,SSE,150,0.0,1.0,91,0.00,-SN,FEW,0.02,0.0,WeatherDisplay:10.37,2013-03-16 02:36:00,
2013-03-15 23:06:00,19.4,17.2,29.65,SW,220,0.0,5.0,91,0.00,BKN,FEW,0.02,0.0,WeatherDisplay:10.37,2013-03-16 03:06:00,
2013-03-15 23:21:00,19.2,17.3,29.66,NE,45,0.0,3.0,92,0.00,BKN,FEW,0.02,0.0,WeatherDisplay:10.37,2013-03-16 03:21:00,
2013-03-15 23:36:00,18.7,16.5,29.67,NNE,17,0.0,2.0,91,0.00,BKN,FEW,0.02,0.0,WeatherDisplay:10.37,2013-03-16 03:36:00,
2013-03-15 23:51:00,18.5,16.3,29.68,WNW,286,0.0,6.0,91,0.00,BKN,FEW,0.02,0.0,WeatherDisplay:10.37,2013-03-16 03:51:00,